Flight Track Log - Related Links

Times and Time Zones

All times are in EDT time to prevent confusion due to time zone crossing. See the AAL1491 flight status page for this flight to view local times or setup timezone preferences in your user account.

Time Position Orientation Groundspeed Altitude Reporting Facility
EDT Latitude Longitude Course Direction KTS MPH feet Rate Location/Type
Sat 11:19:26 AM 38.8740 -77.0500 313° West 150 173 1,400  Level FlightAware ADS-B
Sat 11:19:40 AM 38.8810 -77.0620 307° West 173 199 1,700 1,500 Climbing FlightAware ADS-B
Sat 11:20:06 AM 38.8990 -77.0830 318° Northwest 208 239 2,400 3,000 Climbing FlightAware ADS-B
Sat 11:20:56 AM 38.9430 -77.1310 320° Northwest 234 269 5,500 3,646 Climbing FlightAware ADS-B
Sat 11:21:25 AM 38.9650 -77.1540 321° Northwest 236 272 7,200 3,409 Climbing FlightAware ADS-B
Sat 11:21:40 AM 38.9810 -77.1720 319° Northwest 243 280 8,000 3,300 Climbing FlightAware ADS-B
Sat 11:22:05 AM 38.9960 -77.2030 302° West 248 285 9,400 3,300 Climbing FlightAware ADS-B
Sat 11:22:20 AM 38.9980 -77.2250 277° West 257 296 10,200 2,000 Climbing FlightAware ADS-B
Sat 11:22:47 AM 38.9870 -77.2640 250° West 306 352 10,800 1,350 Climbing FlightAware ADS-B
Sat 11:23:00 AM 38.9700 -77.2820 219° Southwest 341 392 11,100 2,491 Climbing FlightAware ADS-B
Sat 11:23:40 AM 38.9180 -77.3320 217° Southwest 350 403 13,000 2,427 Climbing FlightAware ADS-B
Sat 11:24:29 AM 38.8520 -77.3960 217° Southwest 370 426 14,700 1,213 Climbing FlightAware ADS-B
Sat 11:25:09 AM 38.7970 -77.4490 217° Southwest 367 422 14,800 71 Climbing FlightAware ADS-B
Sat 11:25:53 AM 38.7380 -77.5060 217° Southwest 363 418 14,800  Level FlightAware ADS-B
Sat 11:26:31 AM 38.6860 -77.5560 217° Southwest 377 434 14,800 1,308 Level FlightAware ADS-B
Sat 11:27:11 AM 38.6290 -77.6110 217° Southwest 385 443 16,500 2,471 Climbing FlightAware ADS-B
Sat 11:27:56 AM 38.5640 -77.6740 217° Southwest 393 452 18,300 2,302 Climbing FlightAware ADS-B
Sat 11:28:37 AM 38.5080 -77.7340 220° Southwest 391 450 19,800 2,188 Climbing FlightAware ADS-B
Sat 11:29:21 AM 38.4620 -77.8130 233° Southwest 383 441 21,400 2,143 Climbing FlightAware ADS-B
Sat 11:30:01 AM 38.4220 -77.8910 237° Southwest 388 447 22,800 1,786 Climbing FlightAware ADS-B
Sat 11:30:45 AM 38.3780 -77.9750 236° Southwest 404 465 23,900 1,465 Climbing FlightAware ADS-B
Sat 11:31:27 AM 38.3330 -78.0600 236° Southwest 417 480 24,900 1,395 Climbing FlightAware ADS-B
Sat 11:32:11 AM 38.2850 -78.1510 236° Southwest 427 491 25,900 1,342 Climbing FlightAware ADS-B
Sat 11:32:43 AM 38.2510 -78.2150 236° Southwest 433 498 26,600 1,317 Climbing FlightAware ADS-B
Sat 11:33:33 AM 38.1940 -78.3230 236° Southwest 441 507 27,700 1,533 Climbing FlightAware ADS-B
Sat 11:34:13 AM 38.1470 -78.4110 236° Southwest 439 505 28,900 2,025 Climbing FlightAware ADS-B
Sat 11:34:53 AM 38.1090 -78.4960 240° Southwest 409 471 30,400 1,368 Climbing FlightAware ADS-B
Sat 11:36:29 AM 38.0450 -78.6860 247° West 416 479 32,000 676 Climbing FlightAware ADS-B
Sat 11:37:15 AM 38.0020 -78.8120 247° West 417 480 32,000  Level FlightAware ADS-B
Sat 11:38:10 AM 37.9630 -78.9250 246° West 416 479 32,000  Level FlightAware ADS-B
Sat 11:38:49 AM 37.9300 -79.0220 247° West 415 478 32,000 506 Level FlightAware ADS-B
Sat 11:39:33 AM 37.8950 -79.1180 245° Southwest 422 486 32,700 506 Climbing FlightAware ADS-B
Sat 11:40:12 AM 37.8660 -79.1910 243° Southwest 422 486 32,700 500 Level FlightAware ADS-B
Sat 11:40:57 AM 37.8090 -79.2900 234° Southwest 440 506 33,400 532 Climbing FlightAware ADS-B
Sat 11:41:31 AM 37.7770 -79.3520 237° Southwest 440 506 33,400  Level FlightAware ADS-B
Sat 11:42:21 AM 37.7300 -79.4440 237° Southwest 440 506 33,400 1,626 Level FlightAware ADS-B
Sat 11:43:18 AM 37.6550 -79.5980 238° Southwest 436 502 36,300 1,912 Climbing FlightAware ADS-B
Sat 11:43:52 AM 37.6230 -79.6600 237° Southwest 436 502 36,300  Level FlightAware ADS-B
Sat 11:44:41 AM 37.5780 -79.7490 237° Southwest 436 502 36,300  Level FlightAware ADS-B
Sat 11:45:18 AM 37.5430 -79.8160 237° Southwest 436 502 36,300  Level FlightAware ADS-B
Sat 11:46:02 AM 37.5020 -79.8960 237° Southwest 436 502 36,300  Level FlightAware ADS-B
Sat 11:46:50 AM 37.4570 -79.9830 237° Southwest 436 502 36,300  Level FlightAware ADS-B
Sat 11:47:26 AM 37.4240 -80.0480 237° Southwest 436 502 36,300  Level FlightAware ADS-B
Sat 11:48:12 AM 37.3810 -80.1310 237° Southwest 436 502 36,300  Level FlightAware ADS-B
Sat 11:48:48 AM 37.3470 -80.1960 237° Southwest 436 502 36,300  Level FlightAware ADS-B
Sat 11:49:37 AM 37.3010 -80.2850 237° Southwest 436 502 36,300  Level FlightAware ADS-B
Sat 11:50:59 AM 37.2250 -80.4330 237° Southwest 436 502 36,300 694 Level FlightAware ADS-B
Sat 11:52:04 AM 37.0817 -80.7301 239° Southwest 432 497 38,000 1,041 Climbing FlightAware ADS-B
Sat 11:52:37 AM 37.0552 -80.8046 246° West 432 497 38,000  Level FlightAware ADS-B
Sat 11:53:08 AM 37.0305 -80.8743 246° West 433 498 38,000  Level FlightAware ADS-B
Sat 11:53:41 AM 37.0033 -80.9509 246° West 431 496 38,000  Level FlightAware ADS-B
Sat 11:54:32 AM 36.9624 -81.0661 246° West 429 494 38,000  Level FlightAware ADS-B
Sat 11:55:03 AM 36.9379 -81.1349 246° West 430 495 38,000  Level FlightAware ADS-B
Sat 11:55:33 AM 36.9135 -81.2031 246° West 431 496 38,000  Level FlightAware ADS-B
Sat 11:56:11 AM 36.8824 -81.2896 246° West 432 497 38,000  Level FlightAware ADS-B
Sat 11:56:42 AM 36.8569 -81.3600 246° West 432 497 38,000  Level FlightAware ADS-B
Sat 11:57:12 AM 36.8320 -81.4288 246° West 432 497 38,000  Level FlightAware ADS-B
Sat 11:57:43 AM 36.8068 -81.4985 246° West 432 497 38,000  Level FlightAware ADS-B
Sat 11:58:13 AM 36.7817 -81.5674 246° West 433 498 38,000  Level FlightAware ADS-B
Sat 11:58:58 AM 36.7446 -81.6696 246° West 434 499 38,000  Level FlightAware ADS-B
Sat 11:59:29 AM 36.7197 -81.7381 246° West 433 498 38,000  Level FlightAware ADS-B
Sat 11:59:59 AM 36.6944 -81.8075 246° West 433 498 38,000  Level FlightAware ADS-B
Sat 12:00:31 PM 36.6681 -81.8793 245° Southwest 434 499 38,000  Level FlightAware ADS-B
Sat 12:01:01 PM 36.6428 -81.9484 245° Southwest 435 501 38,000  Level FlightAware ADS-B
Sat 12:01:33 PM 36.6165 -82.0196 245° Southwest 437 503 38,000  Level FlightAware ADS-B
Sat 12:02:03 PM 36.5911 -82.0884 245° Southwest 438 504 38,000  Level FlightAware ADS-B
Sat 12:02:33 PM 36.5655 -82.1577 245° Southwest 439 505 38,000  Level FlightAware ADS-B
Sat 12:03:04 PM 36.5393 -82.2285 245° Southwest 441 507 38,000  Level FlightAware ADS-B
Sat 12:03:36 PM 36.5121 -82.3018 245° Southwest 441 507 38,000  Level FlightAware ADS-B
Sat 12:04:08 PM 36.4847 -82.3753 245° Southwest 443 510 38,000  Level FlightAware ADS-B
Sat 12:04:38 PM 36.4589 -82.4448 245° Southwest 444 511 38,000  Level FlightAware ADS-B
Sat 12:05:10 PM 36.4310 -82.5192 245° Southwest 446 513 38,000  Level FlightAware ADS-B
Sat 12:05:44 PM 36.4013 -82.5985 245° Southwest 446 513 38,000  Level FlightAware ADS-B
Sat 12:06:15 PM 36.3743 -82.6702 245° Southwest 446 513 38,000  Level FlightAware ADS-B
Sat 12:06:47 PM 36.3465 -82.7443 245° Southwest 447 514 38,000  Level FlightAware ADS-B
Sat 12:07:23 PM 36.3155 -82.8263 245° Southwest 447 514 38,000  Level FlightAware ADS-B
Sat 12:07:55 PM 36.2872 -82.9013 245° Southwest 447 514 38,000  Level FlightAware ADS-B
Sat 12:08:25 PM 36.2605 -82.9716 245° Southwest 448 516 38,000  Level FlightAware ADS-B
Sat 12:08:57 PM 36.2330 -83.0440 245° Southwest 449 517 38,000  Level FlightAware ADS-B
Sat 12:09:42 PM 36.1929 -83.1491 245° Southwest 451 519 38,000  Level FlightAware ADS-B
Sat 12:10:12 PM 36.1661 -83.2192 245° Southwest 452 520 38,000  Level FlightAware ADS-B
Sat 12:10:51 PM 36.1313 -83.3099 245° Southwest 453 521 38,000  Level FlightAware ADS-B
Sat 12:11:22 PM 36.1034 -83.3823 245° Southwest 453 521 38,000  Level FlightAware ADS-B
Sat 12:11:53 PM 36.0757 -83.4544 245° Southwest 454 522 38,000  Level FlightAware ADS-B
Sat 12:12:26 PM 36.0459 -83.5317 245° Southwest 453 521 38,000  Level FlightAware ADS-B
Sat 12:12:56 PM 36.0184 -83.6028 244° Southwest 454 522 38,000  Level FlightAware ADS-B
Sat 12:13:28 PM 35.9901 -83.6761 245° Southwest 454 522 38,000  Level FlightAware ADS-B
Sat 12:13:58 PM 35.9627 -83.7460 244° Southwest 455 524 38,000  Level FlightAware ADS-B
Sat 12:14:28 PM 35.9354 -83.8162 244° Southwest 454 522 38,000  Level FlightAware ADS-B
Sat 12:14:47 PM 35.9187 -83.8606 245° Southwest 451 519 38,000  Level FlightAware ADS-B
Sat 12:15:03 PM 35.9075 -83.8994 250° West 444 511 38,000  Level FlightAware ADS-B
Sat 12:15:23 PM 35.8984 -83.9478 257° West 436 502 38,000  Level FlightAware ADS-B
Sat 12:15:53 PM 35.8892 -84.0211 261° West 435 501 38,000  Level FlightAware ADS-B
Sat 12:16:25 PM 35.8793 -84.1006 261° West 435 501 38,000  Level FlightAware ADS-B
Sat 12:16:56 PM 35.8699 -84.1748 261° West 435 501 38,000  Level FlightAware ADS-B
Sat 12:17:28 PM 35.8601 -84.2526 261° West 435 501 38,000  Level FlightAware ADS-B
Sat 12:18:03 PM 35.8488 -84.3403 261° West 435 501 38,000  Level FlightAware ADS-B
Sat 12:18:35 PM 35.8391 -84.4166 261° West 437 503 38,000  Level FlightAware ADS-B
Sat 12:19:05 PM 35.8294 -84.4919 261° West 438 504 38,000  Level FlightAware ADS-B
Sat 12:19:36 PM 35.8197 -84.5680 261° West 438 504 38,000  Level FlightAware ADS-B
Sat 12:20:10 PM 35.8090 -84.6504 261° West 439 505 38,000  Level FlightAware ADS-B
Sat 12:20:41 PM 35.7988 -84.7274 261° West 437 503 38,000  Level FlightAware ADS-B
Sat 12:21:12 PM 35.7889 -84.8022 261° West 434 499 38,000  Level FlightAware ADS-B
Sat 12:21:43 PM 35.7790 -84.8774 261° West 433 498 38,000  Level FlightAware ADS-B
Sat 12:22:17 PM 35.7678 -84.9618 261° West 434 499 38,000  Level FlightAware ADS-B
Sat 12:22:54 PM 35.7557 -85.0517 261° West 437 503 38,000  Level FlightAware ADS-B
Sat 12:23:32 PM 35.7433 -85.1454 261° West 439 505 38,000  Level FlightAware ADS-B
Sat 12:24:15 PM 35.7292 -85.2515 261° West 441 507 38,000  Level FlightAware ADS-B
Sat 12:24:48 PM 35.7180 -85.3332 260° West 445 512 38,000  Level FlightAware ADS-B
Sat 12:25:25 PM 35.7054 -85.4246 260° West 446 513 38,000  Level FlightAware ADS-B
Sat 12:25:55 PM 35.6952 -85.4997 261° West 448 516 38,000  Level FlightAware ADS-B
Sat 12:26:31 PM 35.6828 -85.5904 260° West 447 514 38,000  Level FlightAware ADS-B
Sat 12:27:02 PM 35.6721 -85.6677 260° West 447 514 38,000  Level FlightAware ADS-B
Sat 12:27:36 PM 35.6610 -85.7500 261° West 445 512 38,000  Level FlightAware ADS-B
Sat 12:28:01 PM 35.6513 -85.8154 260° West 445 512 38,000  Level FlightAware ADS-B
Sat 12:28:32 PM 35.6404 -85.8916 260° West 445 512 38,000  Level FlightAware ADS-B
Sat 12:29:03 PM 35.6297 -85.9683 260° West 443 510 38,000  Level FlightAware ADS-B
Sat 12:29:50 PM 35.6130 -86.0862 260° West 443 510 38,000  Level FlightAware ADS-B
Sat 12:30:23 PM 35.6015 -86.1666 260° West 440 506 38,000  Level FlightAware ADS-B
Sat 12:31:11 PM 35.5850 -86.2800 260° West 437 503 38,000  Level FlightAware ADS-B
Sat 12:31:53 PM 35.5700 -86.3830 260° West 437 503 38,000  Level FlightAware ADS-B
Sat 12:32:33 PM 35.5560 -86.4820 260° West 437 503 38,000  Level FlightAware ADS-B
Sat 12:33:15 PM 35.5420 -86.5850 261° West 439 505 38,000  Level FlightAware ADS-B
Sat 12:33:59 PM 35.5270 -86.6930 260° West 438 504 38,000  Level FlightAware ADS-B
Sat 12:34:39 PM 35.5130 -86.7920 260° West 438 504 38,000  Level FlightAware ADS-B
Sat 12:35:03 PM 35.5040 -86.8490 259° West 436 502 38,000  Level FlightAware ADS-B
Sat 12:35:59 PM 35.4850 -86.9860 260° West 434 499 38,000  Level FlightAware ADS-B
Sat 12:36:41 PM 35.4700 -87.0870 260° West 434 499 38,000  Level FlightAware ADS-B
Sat 12:37:23 PM 35.4550 -87.1890 260° West 434 499 38,000  Level FlightAware ADS-B
Sat 12:38:05 PM 35.4410 -87.2910 260° West 434 499 38,000  Level FlightAware ADS-B
Sat 12:38:45 PM 35.4270 -87.3860 260° West 434 499 38,000  Level FlightAware ADS-B
Sat 12:39:28 PM 35.4110 -87.4890 259° West 436 502 38,000  Level FlightAware ADS-B
Sat 12:40:05 PM 35.3980 -87.5790 260° West 436 502 38,000  Level FlightAware ADS-B
Sat 12:40:48 PM 35.3830 -87.6810 260° West 437 503 38,000  Level FlightAware ADS-B
Sat 12:41:36 PM 35.3660 -87.7900 259° West 437 503 38,000  Level FlightAware ADS-B
Sat 12:42:13 PM 35.3540 -87.8660 259° West 437 503 38,000  Level FlightAware ADS-B
Sat 12:43:01 PM 35.3380 -87.9660 259° West 437 503 38,000  Level FlightAware ADS-B
Sat 12:43:37 PM 35.3270 -88.0400 260° West 437 503 38,000  Level FlightAware ADS-B
Sat 12:44:26 PM 35.3100 -88.1410 258° West 437 503 38,000  Level FlightAware ADS-B
Sat 12:45:02 PM 35.2990 -88.2160 260° West 437 503 38,000  Level FlightAware ADS-B
Sat 12:45:48 PM 35.2840 -88.3110 259° West 437 503 38,000  Level FlightAware ADS-B
Sat 12:46:24 PM 35.2720 -88.3850 259° West 437 503 38,000  Level FlightAware ADS-B
Sat 12:47:12 PM 35.2560 -88.4840 259° West 437 503 38,000  Level FlightAware ADS-B
Sat 12:47:48 PM 35.2440 -88.5590 259° West 437 503 38,000  Level FlightAware ADS-B
Sat 12:48:37 PM 35.2280 -88.6600 259° West 437 503 38,000  Level FlightAware ADS-B
Sat 12:49:13 PM 35.2160 -88.7340 259° West 437 503 38,000  Level FlightAware ADS-B
Sat 12:50:03 PM 35.2000 -88.8380 259° West 437 503 38,000  Level FlightAware ADS-B
Sat 12:50:43 PM 35.1870 -88.9200 259° West 437 503 38,000  Level FlightAware ADS-B
Sat 12:51:56 PM 35.1358 -89.2600 259° West 420 483 38,000  Level Memphis Center
Sat 12:52:56 PM 35.1122 -89.4000 258° West 425 489 38,000  Level Memphis Center
Sat 12:53:56 PM 35.0922 -89.5425 260° West 425 489 38,000  Level Memphis Center
Sat 12:54:56 PM 35.0703 -89.6847 259° West 430 495 38,000  Level Memphis Center
Sat 12:55:56 PM 35.0481 -89.8294 259° West 430 495 38,000  Level Memphis Center
Sat 12:56:56 PM 35.0233 -89.9742 258° West 436 502 38,000  Level Memphis Center
Sat 12:57:56 PM 34.9989 -90.1189 258° West 436 502 38,000  Level Memphis Center
Sat 12:58:56 PM 34.9781 -90.2608 260° West 436 502 38,000  Level Memphis Center
Sat 12:59:56 PM 34.9594 -90.3875 260° West 436 502 38,000  Level Memphis Center
Sat 01:00:56 PM 34.9364 -90.5319 259° West 431 496 38,000  Level Memphis Center
Sat 01:01:56 PM 34.9153 -90.6736 260° West 431 496 38,000  Level Memphis Center
Sat 01:02:56 PM 34.8917 -90.8153 259° West 431 496 38,000  Level Memphis Center
Sat 01:08:49 PM 34.7600 -91.6680 259° West 433 498 38,000  Level FlightAware ADS-B
Sat 01:09:31 PM 34.7470 -91.7540 260° West 433 498 38,000  Level FlightAware ADS-B
Sat 01:10:24 PM 34.7290 -91.8610 258° West 433 498 38,000  Level FlightAware ADS-B
Sat 01:11:32 PM 34.7070 -92.0000 259° West 433 498 38,000  Level FlightAware ADS-B
Sat 01:12:19 PM 34.6920 -92.0950 259° West 433 498 38,000  Level FlightAware ADS-B
Sat 01:12:56 PM 34.6800 -92.1700 259° West 433 498 38,000  Level FlightAware ADS-B
Sat 01:13:44 PM 34.6640 -92.2680 259° West 433 498 38,000  Level FlightAware ADS-B
Sat 01:14:19 PM 34.6530 -92.3390 259° West 433 498 38,000  Level FlightAware ADS-B
Sat 01:15:05 PM 34.6380 -92.4330 259° West 433 498 38,000  Level FlightAware ADS-B
Sat 01:16:02 PM 34.6190 -92.5480 259° West 433 498 38,000  Level FlightAware ADS-B
Sat 01:16:38 PM 34.6080 -92.6210 260° West 433 498 38,000  Level FlightAware ADS-B
Sat 01:17:24 PM 34.5930 -92.7150 259° West 433 498 38,000  Level FlightAware ADS-B
Sat 01:18:00 PM 34.5810 -92.7880 259° West 433 498 38,000  Level FlightAware ADS-B
Sat 01:18:48 PM 34.5650 -92.8850 259° West 433 498 38,000  Level FlightAware ADS-B
Sat 01:19:56 PM 34.4100 -93.1892 259° West 425 489 38,000  Level Memphis Center
Sat 01:20:56 PM 34.3714 -93.3239 251° West 425 489 38,000  Level Memphis Center
Sat 01:21:46 PM 34.3403 -93.4497 253° West 427 491 38,000  Level Fort Worth Center
Sat 01:27:05 PM 34.1420 -94.1580 253° West 411 473 38,000  Level FlightAware ADS-B
Sat 01:27:55 PM 34.1160 -94.2510 251° West 411 473 38,000  Level FlightAware ADS-B
Sat 01:28:30 PM 34.0970 -94.3150 250° West 411 473 38,000  Level FlightAware ADS-B
Sat 01:29:18 PM 34.0720 -94.4040 251° West 411 473 38,000  Level FlightAware ADS-B
Sat 01:29:55 PM 34.0520 -94.4720 250° West 411 473 38,000 -470 Level FlightAware ADS-B
Sat 01:31:13 PM 33.9940 -94.6210 245° Southwest 417 480 37,100 -462 Descending FlightAware ADS-B
Sat 01:31:52 PM 33.9700 -94.6920 248° West 417 480 37,100 -970 Level FlightAware ADS-B
Sat 01:32:52 PM 33.9030 -94.8980 249° West 430 495 35,500 -990 Descending FlightAware ADS-B
Sat 01:33:29 PM 33.8800 -94.9680 248° West 430 495 35,500 -3,525 Level FlightAware ADS-B
Sat 01:34:12 PM 33.8410 -95.0890 249° West 436 502 30,800 -4,483 Descending FlightAware ADS-B
Sat 01:34:56 PM 33.8090 -95.1870 249° West 426 490 29,000 -2,314 Descending FlightAware ADS-B
Sat 01:35:22 PM 33.7930 -95.2350 248° West 421 484 28,100 -2,417 Descending FlightAware ADS-B
Sat 01:36:08 PM 33.7570 -95.3420 248° West 409 471 26,100 -2,442 Descending FlightAware ADS-B
Sat 01:36:48 PM 33.7290 -95.4250 248° West 400 460 24,600 -2,250 Descending FlightAware ADS-B
Sat 01:37:28 PM 33.7020 -95.5060 248° West 393 452 23,100 -1,814 Descending FlightAware ADS-B
Sat 01:38:14 PM 33.6710 -95.6000 248° West 387 445 22,000 -1,047 Descending FlightAware ADS-B
Sat 01:38:54 PM 33.6450 -95.6780 248° West 389 448 21,600 -815 Descending FlightAware ADS-B
Sat 01:39:35 PM 33.6160 -95.7620 248° West 385 443 20,900 -1,000 Descending FlightAware ADS-B
Sat 01:40:18 PM 33.5880 -95.8450 248° West 383 441 20,200 -1,103 Descending FlightAware ADS-B
Sat 01:41:02 PM 33.5590 -95.9310 248° West 374 430 19,300 -1,778 Descending FlightAware ADS-B
Sat 01:41:39 PM 33.5350 -96.0030 248° West 373 429 17,800 -2,458 Descending FlightAware ADS-B
Sat 01:42:25 PM 33.5050 -96.0900 248° West 368 423 15,900 -2,471 Descending FlightAware ADS-B
Sat 01:43:04 PM 33.4800 -96.1620 247° West 365 420 14,300 -2,530 Descending FlightAware ADS-B
Sat 01:43:48 PM 33.4520 -96.2450 248° West 361 415 12,400 -2,442 Descending FlightAware ADS-B
Sat 01:44:30 PM 33.4260 -96.3210 248° West 353 406 10,800 -1,171 Descending FlightAware ADS-B
Sat 01:45:10 PM 33.4040 -96.3860 248° West 295 339 10,800  Level FlightAware ADS-B
Sat 01:45:24 PM 33.3930 -96.4050 235° Southwest 280 322 10,800 -1,219 Level FlightAware ADS-B
Sat 01:46:14 PM 33.3660 -96.4770 246° West 284 327 9,500 -1,569 Descending FlightAware ADS-B
Sat 01:46:29 PM 33.3590 -96.4990 249° West 281 323 9,100 -1,500 Descending FlightAware ADS-B
Sat 01:46:54 PM 33.3490 -96.5350 252° West 279 321 8,500 -1,472 Descending FlightAware ADS-B
Sat 01:47:22 PM 33.3370 -96.5750 250° West 277 319 7,800 -1,286 Descending FlightAware ADS-B
Sat 01:47:50 PM 33.3240 -96.6150 249° West 272 313 7,300 -1,038 Descending FlightAware ADS-B
Sat 01:48:14 PM 33.3140 -96.6490 251° West 271 312 6,900 -889 Descending FlightAware ADS-B
Sat 01:48:44 PM 33.3010 -96.6910 250° West 268 308 6,500 -964 Descending FlightAware ADS-B
Sat 01:49:10 PM 33.2900 -96.7280 250° West 265 305 6,000 -1,034 Descending FlightAware ADS-B
Sat 01:49:42 PM 33.2770 -96.7700 250° West 262 302 5,500 -1,000 Descending FlightAware ADS-B
Sat 01:50:04 PM 33.2680 -96.8010 251° West 263 303 5,100 -778 Descending FlightAware ADS-B
Sat 01:50:36 PM 33.2550 -96.8440 250° West 259 298 4,800 -290 Descending FlightAware ADS-B
Sat 01:51:06 PM 33.2570 -96.8850 273° West 247 284 4,800  Level FlightAware ADS-B
Sat 01:51:34 PM 33.2630 -96.9220 281° West 237 273 4,800 -107 Level FlightAware ADS-B
Sat 01:52:02 PM 33.2700 -96.9580 283° West 235 270 4,700 -600 Descending FlightAware ADS-B
Sat 01:52:14 PM 33.2720 -96.9730 279° West 235 270 4,400 -1,256 Descending FlightAware ADS-B
Sat 01:52:45 PM 33.2590 -97.0050 244° Southwest 207 238 3,800 -581 Descending FlightAware ADS-B
Sat 01:53:16 PM 33.2350 -97.0210 209° Southwest 202 232 3,800  Level FlightAware ADS-B
Sat 01:53:28 PM 33.2240 -97.0240 193° South 199 229 3,800  Level FlightAware ADS-B
Sat 01:53:44 PM 33.2090 -97.0250 183° South 198 228 3,800 -115 Level FlightAware ADS-B
Sat 01:54:20 PM 33.1790 -97.0250 180° South 179 206 3,700 -273 Descending FlightAware ADS-B
Sat 01:54:50 PM 33.1540 -97.0250 180° South 169 194 3,500 -212 Descending FlightAware ADS-B
Sat 01:56:13 PM 33.1350 -97.0250 180° South 170 196 3,300 -375 Descending FlightAware ADS-B
Sat 01:56:42 PM 33.0650 -97.0250 180° South 167 192 2,800 -526 Descending FlightAware ADS-B
Sat 01:57:10 PM 33.0440 -97.0250 180° South 169 194 2,800 -429 Level FlightAware ADS-B
Sat 01:57:38 PM 33.0200 -97.0250 180° South 180 207 2,400 -964 Descending FlightAware ADS-B
Sat 01:58:06 PM 32.9980 -97.0260 182° South 171 197 1,900 -960 Descending FlightAware ADS-B
Sat 01:58:28 PM 32.9820 -97.0260 180° South 159 183 1,600 -720 Descending FlightAware ADS-B
Sat 01:58:56 PM 32.9620 -97.0260 180° South 144 166 1,300 -321 Descending FlightAware ADS-B
Sat 01:59:24 PM 32.9470 -97.0260 180° South 144 166 1,300  Level FlightAware ADS-B

Login

Don't have an account? Register now (free) for customized features, flight alerts, and more!